Time;durP1;ratioP1;P1;durP2;ratioP2;P2;SDS_P1;SDS_P2;PMS_P1;PMS_P2;Temp;Humidity;BMP_temperature;BMP_pressure;BME280_temperature;BME280_humidity;BME280_pressure;Samples;Min_cycle;Max_cycle;Signal;HPM_P1;HPM_P2
2023/12/24 00:02:22;;;;;;;1.33;1.33;;;8.10;99.90;;;;;;5007168;28;20593;-78
2023/12/24 00:04:51;;;;;;;2.22;1.75;;;8.10;99.90;;;;;;5021720;28;20053;-77
2023/12/24 00:07:18;;;;;;;0.40;0.40;;;8.10;99.90;;;;;;5024295;28;20041;-77
2023/12/24 00:09:46;;;;;;;1.42;1.42;;;8.10;99.90;;;;;;5025204;28;20037;-78
2023/12/24 00:12:12;;;;;;;0.93;0.93;;;8.10;99.90;;;;;;4997878;28;20052;-78
2023/12/24 00:14:39;;;;;;;0.30;0.30;;;8.10;99.90;;;;;;5012959;28;20103;-77
2023/12/24 00:17:06;;;;;;;0.63;0.63;;;8.10;99.90;;;;;;5011397;28;20055;-77
2023/12/24 00:19:33;;;;;;;0.20;0.20;;;8.10;99.90;;;;;;5045029;28;20050;-79
2023/12/24 00:22:00;;;;;;;33.60;15.68;;;8.10;99.90;;;;;;5024461;28;20045;-76
2023/12/24 00:24:27;;;;;;;32.85;13.75;;;8.00;99.90;;;;;;5021777;28;20144;-78
2023/12/24 00:26:54;;;;;;;22.55;14.88;;;8.00;99.90;;;;;;5022349;28;20659;-76
2023/12/24 00:29:21;;;;;;;30.75;15.00;;;8.00;99.90;;;;;;5022184;28;20033;-78
2023/12/24 00:31:48;;;;;;;20.02;11.50;;;8.00;99.90;;;;;;4992886;28;20589;-77
2023/12/24 00:34:15;;;;;;;26.88;14.25;;;8.00;99.90;;;;;;5010270;28;20057;-78
2023/12/24 00:36:42;;;;;;;25.52;13.57;;;8.00;99.90;;;;;;5027761;28;20115;-78
2023/12/24 00:39:10;;;;;;;23.67;12.85;;;8.00;99.90;;;;;;5027523;28;20066;-77
2023/12/24 00:41:40;;;;;;;28.75;15.10;;;8.00;99.90;;;;;;5017762;28;20025;-77
2023/12/24 00:44:07;;;;;;;30.75;14.85;;;8.00;99.90;;;;;;5017971;28;20551;-78
2023/12/24 00:46:34;;;;;;;26.20;13.63;;;8.00;99.90;;;;;;5019613;28;20049;-78
2023/12/24 00:49:00;;;;;;;23.33;11.73;;;7.90;99.90;;;;;;5034442;28;20045;-77
2023/12/24 00:51:27;;;;;;;25.95;12.27;;;7.90;99.90;;;;;;5033791;28;20084;-77
2023/12/24 00:53:54;;;;;;;24.17;10.23;;;8.00;99.90;;;;;;5017243;28;20057;-77
2023/12/24 00:56:21;;;;;;;31.33;13.18;;;8.00;99.90;;;;;;5030792;28;20523;-79
2023/12/24 00:58:48;;;;;;;22.45;12.18;;;8.00;99.90;;;;;;5015528;28;20041;-77
2023/12/24 01:01:15;;;;;;;27.40;14.25;;;8.00;99.90;;;;;;5033989;28;20414;-78
2023/12/24 01:03:42;;;;;;;27.90;15.25;;;8.00;99.90;;;;;;5022460;28;20107;-78
2023/12/24 01:06:09;;;;;;;25.20;14.05;;;8.00;99.90;;;;;;4994704;28;20045;-77
2023/12/24 01:08:36;;;;;;;30.65;14.50;;;8.00;99.90;;;;;;5023159;28;20044;-78
2023/12/24 01:11:03;;;;;;;27.73;14.55;;;8.00;99.90;;;;;;5036179;28;20209;-78
2023/12/24 01:13:30;;;;;;;28.17;14.35;;;8.00;99.90;;;;;;5011911;28;20075;-77
2023/12/24 01:15:57;;;;;;;36.60;16.25;;;8.00;99.90;;;;;;5004022;28;20550;-78
2023/12/24 01:18:24;;;;;;;34.17;16.27;;;8.00;99.90;;;;;;5032696;28;20693;-79
2023/12/24 01:20:51;;;;;;;30.45;15.88;;;8.00;99.90;;;;;;5040044;28;20534;-78
2023/12/24 01:23:18;;;;;;;35.42;17.00;;;8.00;99.90;;;;;;5010904;28;20127;-78
2023/12/24 01:25:45;;;;;;;25.55;14.32;;;8.00;99.90;;;;;;5031305;28;20398;-80
2023/12/24 01:28:22;;;;;;;32.28;16.40;;;8.00;99.90;;;;;;5029967;28;20146;-79
2023/12/24 01:30:49;;;;;;;35.53;17.42;;;7.90;99.90;;;;;;5021836;28;20100;-79
2023/12/24 01:33:24;;;;;;;32.00;16.20;;;8.00;99.90;;;;;;5021625;28;20106;-78
2023/12/24 01:35:51;;;;;;;32.13;15.25;;;8.00;99.90;;;;;;5005793;28;20064;-78
2023/12/24 01:38:19;;;;;;;33.17;14.73;;;8.00;99.90;;;;;;5029076;28;20339;-78
2023/12/24 01:40:46;;;;;;;33.17;15.20;;;8.00;99.90;;;;;;5001742;28;20041;-78
2023/12/24 01:43:13;;;;;;;38.92;16.30;;;8.00;99.90;;;;;;5011038;28;20037;-80
2023/12/24 01:45:40;;;;;;;33.97;14.32;;;8.00;99.90;;;;;;4998991;28;20942;-79
2023/12/24 01:48:07;;;;;;;28.70;13.93;;;8.00;99.90;;;;;;5005399;28;20041;-79
2023/12/24 01:50:35;;;;;;;25.10;15.25;;;8.00;99.90;;;;;;5005776;28;20053;-79
2023/12/24 01:53:04;;;;;;;33.65;15.18;;;8.00;99.90;;;;;;5017045;28;20056;-79
2023/12/24 01:55:33;;;;;;;29.73;15.60;;;8.00;99.90;;;;;;4989670;28;20049;-78
2023/12/24 01:58:04;;;;;;;31.08;15.80;;;8.10;99.90;;;;;;5022360;28;20055;-79
2023/12/24 02:00:47;;;;;;;26.15;13.90;;;8.10;99.90;;;;;;5020988;28;20055;-77
2023/12/24 02:03:28;;;;;;;29.40;15.05;;;8.10;99.90;;;;;;5014961;28;20209;-78
2023/12/24 02:05:59;;;;;;;;;;;8.10;99.90;;;;;;5013778;28;20526;-79
2023/12/24 02:08:27;;;;;;;34.92;15.38;;;8.10;99.90;;;;;;5033792;28;19921;-78
2023/12/24 02:10:54;;;;;;;39.13;16.83;;;8.10;99.90;;;;;;5027752;28;20043;-78
2023/12/24 02:13:21;;;;;;;32.10;16.25;;;8.10;99.90;;;;;;5031078;28;20106;-77
2023/12/24 02:15:53;;;;;;;36.25;17.38;;;8.10;99.90;;;;;;5044214;28;20045;-78
2023/12/24 02:18:21;;;;;;;32.33;17.75;;;8.20;99.90;;;;;;5035965;28;20549;-76
2023/12/24 02:20:48;;;;;;;35.35;17.63;;;8.20;99.90;;;;;;5033599;28;20121;-78
2023/12/24 02:23:15;;;;;;;35.10;17.67;;;8.20;99.90;;;;;;5010926;28;20044;-78
2023/12/24 02:25:43;;;;;;;29.70;14.80;;;8.20;99.90;;;;;;5010439;28;20122;-78
2023/12/24 02:28:31;;;;;;;37.28;19.02;;;8.20;99.90;;;;;;5054946;28;20051;-78
2023/12/24 02:31:02;;;;;;;28.65;15.20;;;8.20;99.90;;;;;;5029490;28;20045;-77
2023/12/24 02:33:44;;;;;;;43.88;17.52;;;8.20;99.90;;;;;;5030294;28;20050;-77
2023/12/24 02:36:13;;;;;;;31.15;16.73;;;8.20;99.90;;;;;;5028013;28;20045;-77
2023/12/24 02:38:44;;;;;;;35.30;17.30;;;8.20;99.90;;;;;;5040016;28;20045;-77
2023/12/24 02:41:17;;;;;;;37.65;17.80;;;8.20;99.90;;;;;;5023745;28;20065;-77
2023/12/24 02:43:45;;;;;;;40.22;18.45;;;8.20;99.90;;;;;;5036453;28;20052;-77
2023/12/24 02:46:15;;;;;;;31.17;15.77;;;8.20;99.90;;;;;;5014330;28;20048;-77
2023/12/24 02:48:44;;;;;;;28.98;16.55;;;8.20;99.90;;;;;;5031652;28;20578;-78
2023/12/24 02:51:11;;;;;;;26.15;13.23;;;8.20;99.90;;;;;;5008452;28;20444;-77
2023/12/24 02:53:38;;;;;;;35.03;16.80;;;8.20;99.90;;;;;;5030935;28;20127;-78
2023/12/24 02:56:05;;;;;;;27.73;13.55;;;8.20;99.90;;;;;;4996327;28;20045;-77
2023/12/24 02:58:32;;;;;;;43.15;16.73;;;8.30;99.90;;;;;;5013584;28;20045;-77
2023/12/24 03:00:59;;;;;;;28.50;14.85;;;8.20;99.90;;;;;;5027972;28;20132;-77
2023/12/24 03:03:26;;;;;;;31.20;14.60;;;8.20;99.90;;;;;;5001548;28;20064;-77
2023/12/24 03:05:53;;;;;;;26.50;12.48;;;8.30;99.90;;;;;;5013692;28;20045;-77
2023/12/24 03:08:21;;;;;;;31.17;15.25;;;8.30;99.90;;;;;;5012295;28;21059;-77
2023/12/24 03:10:48;;;;;;;25.52;15.63;;;8.30;99.90;;;;;;5006592;28;20041;-76
2023/12/24 03:13:15;;;;;;;24.50;9.77;;;8.30;99.90;;;;;;5023851;28;20050;-77
2023/12/24 03:15:44;;;;;;;20.80;10.77;;;8.30;99.90;;;;;;5017091;28;20044;-78
2023/12/24 03:18:13;;;;;;;23.38;11.02;;;8.30;99.90;;;;;;5012505;28;20046;-77
2023/12/24 03:20:42;;;;;;;18.25;11.82;;;8.30;99.90;;;;;;5030190;28;20041;-75
2023/12/24 03:23:09;;;;;;;21.48;12.02;;;8.30;99.90;;;;;;5050219;28;20273;-75
2023/12/24 03:25:36;;;;;;;26.65;10.50;;;8.30;99.90;;;;;;5009017;28;21807;-76
2023/12/24 03:28:04;;;;;;;19.90;10.13;;;8.30;99.90;;;;;;5023347;28;20652;-76
2023/12/24 03:30:31;;;;;;;20.00;10.85;;;8.30;99.90;;;;;;5034058;28;20059;-77
2023/12/24 03:32:58;;;;;;;17.88;9.75;;;8.30;99.90;;;;;;5031354;28;20037;-77
2023/12/24 03:35:26;;;;;;;17.92;8.38;;;8.30;99.90;;;;;;5022515;28;20078;-76
2023/12/24 03:37:55;;;;;;;18.42;9.82;;;8.30;99.90;;;;;;5032766;28;20072;-78
2023/12/24 03:40:22;;;;;;;22.20;10.20;;;8.30;99.90;;;;;;5038203;28;20053;-78
2023/12/24 03:42:53;;;;;;;25.73;11.73;;;8.30;99.90;;;;;;5017847;28;20024;-77
2023/12/24 03:45:20;;;;;;;22.02;10.52;;;8.30;99.90;;;;;;5011650;28;20037;-76
2023/12/24 03:47:47;;;;;;;19.90;10.00;;;8.30;99.90;;;;;;4996912;28;20041;-77
2023/12/24 03:50:17;;;;;;;22.98;10.40;;;8.30;99.90;;;;;;5032554;28;20677;-76
2023/12/24 03:52:44;;;;;;;23.13;10.57;;;8.30;99.90;;;;;;5011776;28;20040;-77
2023/12/24 03:55:11;;;;;;;16.17;8.52;;;8.30;99.90;;;;;;5021194;28;20049;-78
2023/12/24 03:57:38;;;;;;;14.70;8.60;;;8.40;99.90;;;;;;5010397;28;21906;-77
2023/12/24 04:00:05;;;;;;;14.63;7.05;;;8.30;99.90;;;;;;5038419;28;20041;-76
2023/12/24 04:02:37;;;;;;;23.42;8.10;;;8.30;99.90;;;;;;5032546;28;20056;-78
2023/12/24 04:05:04;;;;;;;22.90;7.68;;;8.40;99.90;;;;;;5014540;28;20075;-77
2023/12/24 04:07:35;;;;;;;13.60;5.57;;;8.40;99.90;;;;;;5030448;28;20041;-77
2023/12/24 04:10:05;;;;;;;11.32;6.43;;;8.40;99.90;;;;;;5034777;28;20132;-78
2023/12/24 04:12:32;;;;;;;10.90;5.30;;;8.40;99.90;;;;;;5025470;28;20041;-77
2023/12/24 04:15:00;;;;;;;9.98;4.70;;;8.30;99.90;;;;;;5032552;28;20121;-77
2023/12/24 04:17:27;;;;;;;8.98;4.32;;;8.30;99.90;;;;;;5008980;28;20049;-76
2023/12/24 04:19:54;;;;;;;7.60;4.57;;;8.40;99.90;;;;;;5016168;28;20045;-78
2023/12/24 04:22:22;;;;;;;9.45;4.85;;;8.40;99.90;;;;;;4988652;28;20048;-78
2023/12/24 04:24:52;;;;;;;11.80;4.75;;;8.30;99.90;;;;;;5026212;28;20048;-77
2023/12/24 04:27:20;;;;;;;5.50;3.17;;;8.40;99.90;;;;;;5020715;28;20054;-76
2023/12/24 04:29:51;;;;;;;11.93;5.28;;;8.30;99.90;;;;;;5066560;28;20523;-78
2023/12/24 04:32:20;;;;;;;12.93;5.70;;;8.30;99.90;;;;;;5020001;28;20067;-77
2023/12/24 04:34:50;;;;;;;12.52;5.00;;;8.30;99.90;;;;;;5007120;28;20052;-77
2023/12/24 04:37:16;;;;;;;11.43;4.18;;;8.30;99.90;;;;;;5039854;28;20422;-77
2023/12/24 04:39:43;;;;;;;9.95;4.07;;;8.30;99.90;;;;;;5030481;28;20045;-77
2023/12/24 04:42:16;;;;;;;7.38;3.60;;;8.40;99.90;;;;;;5025237;28;20067;-76
2023/12/24 04:44:46;;;;;;;9.75;3.15;;;8.30;99.90;;;;;;5031712;28;20124;-77
2023/12/24 04:47:14;;;;;;;15.02;4.18;;;8.40;99.90;;;;;;5029708;28;20132;-77
2023/12/24 04:49:52;;;;;;;12.00;3.72;;;8.40;99.90;;;;;;5037235;28;20053;-78
2023/12/24 04:52:19;;;;;;;8.10;3.45;;;8.40;99.90;;;;;;5018481;28;20045;-79
2023/12/24 04:54:46;;;;;;;6.70;2.88;;;8.30;99.90;;;;;;5038197;28;20050;-77
2023/12/24 04:57:13;;;;;;;8.15;3.10;;;8.30;99.90;;;;;;5013664;28;20057;-77
2023/12/24 04:59:41;;;;;;;6.25;2.53;;;8.30;99.90;;;;;;5025040;28;20053;-77
2023/12/24 05:02:08;;;;;;;3.50;2.25;;;8.40;99.90;;;;;;5013176;28;20052;-77
2023/12/24 05:04:41;;;;;;;5.70;2.58;;;8.40;99.90;;;;;;5023411;28;20796;-77
2023/12/24 05:07:11;;;;;;;5.43;2.55;;;8.40;99.90;;;;;;5009360;28;20503;-77
2023/12/24 05:09:40;;;;;;;5.05;2.33;;;8.50;99.90;;;;;;5017657;28;20044;-76
2023/12/24 05:12:11;;;;;;;5.25;1.58;;;8.50;99.90;;;;;;4999974;28;20109;-77
2023/12/24 05:14:38;;;;;;;4.47;1.88;;;8.50;99.90;;;;;;5006572;28;20045;-78
2023/12/24 05:17:05;;;;;;;5.65;2.15;;;8.50;99.90;;;;;;5004856;28;20034;-77
2023/12/24 05:19:32;;;;;;;3.83;2.10;;;8.60;99.90;;;;;;5006393;28;20053;-78
2023/12/24 05:21:59;;;;;;;2.83;1.98;;;8.50;99.90;;;;;;5005278;28;20045;-77
2023/12/24 05:24:27;;;;;;;5.43;2.10;;;8.50;99.90;;;;;;5020028;28;20049;-78
2023/12/24 05:26:54;;;;;;;2.40;1.58;;;8.60;99.90;;;;;;5032275;28;20127;-77
2023/12/24 05:29:21;;;;;;;4.22;2.17;;;8.60;99.90;;;;;;5028050;28;20054;-76
2023/12/24 05:31:48;;;;;;;2.25;1.63;;;8.60;99.90;;;;;;5021278;28;20145;-78
2023/12/24 05:34:16;;;;;;;2.58;1.85;;;8.70;99.90;;;;;;5028618;28;20060;-77
2023/12/24 05:36:43;;;;;;;2.75;1.70;;;8.70;99.90;;;;;;5008187;28;20049;-77
2023/12/24 05:39:11;;;;;;;2.22;1.27;;;8.70;99.90;;;;;;5015689;28;20083;-77
2023/12/24 05:41:38;;;;;;;2.67;1.60;;;8.70;99.90;;;;;;5029990;28;20046;-76
2023/12/24 05:44:05;;;;;;;2.35;1.40;;;8.70;99.90;;;;;;5015092;28;20044;-77
2023/12/24 05:46:32;;;;;;;1.98;1.40;;;8.80;99.90;;;;;;5008158;28;20065;-77
2023/12/24 05:48:58;;;;;;;1.58;0.98;;;8.80;99.90;;;;;;5030117;28;20675;-78
2023/12/24 05:51:25;;;;;;;4.63;1.33;;;8.80;99.90;;;;;;5013181;28;20038;-79
2023/12/24 05:53:52;;;;;;;2.83;1.23;;;8.80;99.90;;;;;;5034735;28;20061;-78
2023/12/24 05:56:19;;;;;;;2.33;1.63;;;8.80;99.90;;;;;;5000899;28;20053;-77
2023/12/24 05:58:47;;;;;;;2.35;0.98;;;8.80;99.90;;;;;;5033226;28;20049;-77
2023/12/24 06:01:19;;;;;;;1.02;0.60;;;8.90;99.90;;;;;;4999594;28;20045;-76
2023/12/24 06:03:46;;;;;;;1.05;0.65;;;8.90;99.90;;;;;;5029518;28;20052;-77
2023/12/24 06:06:12;;;;;;;1.40;0.90;;;8.90;99.90;;;;;;5037160;28;20040;-78
2023/12/24 06:08:39;;;;;;;0.77;0.50;;;8.90;99.90;;;;;;5041419;28;20051;-78
2023/12/24 06:11:14;;;;;;;1.08;0.60;;;8.90;99.90;;;;;;5019326;28;20071;-77
2023/12/24 06:13:40;;;;;;;0.77;0.60;;;8.90;99.90;;;;;;5043268;28;20051;-77
2023/12/24 06:16:07;;;;;;;0.88;0.60;;;8.90;99.90;;;;;;5037036;28;20045;-78
2023/12/24 06:18:34;;;;;;;1.38;0.82;;;9.00;99.90;;;;;;5032177;28;20087;-78
2023/12/24 06:21:03;;;;;;;2.55;0.90;;;8.90;99.90;;;;;;5025391;28;20056;-78
2023/12/24 06:23:32;;;;;;;1.98;0.98;;;8.90;99.90;;;;;;5026108;28;20040;-77
2023/12/24 06:25:59;;;;;;;1.27;0.88;;;9.00;99.90;;;;;;4987308;28;20033;-78
2023/12/24 06:28:29;;;;;;;1.42;1.15;;;8.90;99.90;;;;;;4999046;28;20051;-77
2023/12/24 06:30:56;;;;;;;1.45;1.05;;;8.90;99.90;;;;;;5032245;28;20032;-78
2023/12/24 06:33:23;;;;;;;1.08;0.80;;;9.00;99.90;;;;;;5037076;28;20056;-77
2023/12/24 06:35:50;;;;;;;1.20;0.68;;;9.00;99.90;;;;;;5033482;28;20044;-76
2023/12/24 06:38:17;;;;;;;1.10;0.70;;;9.00;99.90;;;;;;5049699;28;20052;-78
2023/12/24 06:40:44;;;;;;;2.80;0.90;;;9.00;99.90;;;;;;5020384;28;20032;-79
2023/12/24 06:43:11;;;;;;;1.05;0.85;;;9.00;99.90;;;;;;5035438;28;20411;-78
2023/12/24 06:45:38;;;;;;;1.00;0.68;;;9.00;99.90;;;;;;5009193;28;20037;-78
2023/12/24 06:48:06;;;;;;;1.63;0.52;;;9.00;99.90;;;;;;5036949;28;20037;-78
2023/12/24 06:50:33;;;;;;;0.50;0.50;;;9.10;99.90;;;;;;5014570;28;20124;-78
2023/12/24 06:53:01;;;;;;;0.98;0.75;;;9.10;99.90;;;;;;5018307;28;20523;-78
2023/12/24 06:55:28;;;;;;;1.17;0.70;;;9.10;99.90;;;;;;5004834;28;20052;-77
2023/12/24 06:57:58;;;;;;;1.25;0.85;;;9.10;99.90;;;;;;5058842;28;20092;-77
2023/12/24 07:00:25;;;;;;;1.00;0.70;;;9.10;99.90;;;;;;5054230;28;20171;-77
2023/12/24 07:02:52;;;;;;;1.58;1.13;;;9.10;99.90;;;;;;5036872;28;20049;-78
2023/12/24 07:05:19;;;;;;;0.68;0.50;;;9.10;99.90;;;;;;5019651;28;20052;-78
2023/12/24 07:07:46;;;;;;;1.58;1.17;;;9.10;99.90;;;;;;5031996;28;20291;-79
2023/12/24 07:10:13;;;;;;;2.45;0.75;;;9.20;99.90;;;;;;5026932;28;20064;-79
2023/12/24 07:12:39;;;;;;;3.72;1.75;;;9.10;99.90;;;;;;5048882;28;20056;-76
2023/12/24 07:15:07;;;;;;;1.20;0.90;;;9.10;99.90;;;;;;5042930;28;20045;-77
2023/12/24 07:17:34;;;;;;;0.90;0.70;;;9.10;99.90;;;;;;5036457;28;20064;-78
2023/12/24 07:20:01;;;;;;;0.88;0.80;;;9.10;99.90;;;;;;5029201;28;20045;-78
2023/12/24 07:22:28;;;;;;;2.05;1.50;;;9.20;99.90;;;;;;5013727;28;20160;-78
2023/12/24 07:24:54;;;;;;;4.43;2.20;;;9.10;99.90;;;;;;5019566;28;20045;-78
2023/12/24 07:27:22;;;;;;;3.25;2.00;;;9.10;99.90;;;;;;5015681;28;20046;-77
2023/12/24 07:29:48;;;;;;;2.67;1.65;;;9.20;99.90;;;;;;5031619;28;20049;-77
2023/12/24 07:32:15;;;;;;;2.03;1.40;;;9.20;99.90;;;;;;5024340;28;20037;-76
2023/12/24 07:34:42;;;;;;;3.38;2.20;;;9.20;99.90;;;;;;5003764;28;20053;-76
2023/12/24 07:37:08;;;;;;;6.18;3.15;;;9.20;99.90;;;;;;4996813;28;20136;-77
2023/12/24 07:39:38;;;;;;;7.15;4.10;;;9.20;99.90;;;;;;5023570;28;20860;-76
2023/12/24 07:42:05;;;;;;;3.22;2.08;;;9.20;99.90;;;;;;5004637;28;20071;-77
2023/12/24 07:44:32;;;;;;;3.13;2.17;;;9.20;99.90;;;;;;5007823;28;20041;-76
2023/12/24 07:46:59;;;;;;;2.67;1.55;;;9.30;99.90;;;;;;5031238;28;20132;-77
2023/12/24 07:49:28;;;;;;;0.98;0.70;;;9.30;99.90;;;;;;5035676;28;20073;-75
2023/12/24 07:51:55;;;;;;;1.83;1.50;;;9.20;99.90;;;;;;5036416;28;20784;-77
2023/12/24 07:54:31;;;;;;;2.25;1.52;;;9.30;99.90;;;;;;5027813;28;20527;-76
2023/12/24 07:56:59;;;;;;;4.60;2.55;;;9.30;99.90;;;;;;5000733;28;20059;-77
2023/12/24 07:59:27;;;;;;;2.30;1.77;;;9.30;99.90;;;;;;5036868;28;20053;-74
2023/12/24 08:01:54;;;;;;;2.20;1.60;;;9.30;99.90;;;;;;5033371;28;20275;-76
2023/12/24 08:04:20;;;;;;;2.28;1.45;;;9.30;99.90;;;;;;5017845;28;20033;-76
2023/12/24 08:06:47;;;;;;;3.25;2.20;;;9.30;99.90;;;;;;5025422;28;20105;-76
2023/12/24 08:09:15;;;;;;;2.80;1.85;;;9.30;99.90;;;;;;5029407;28;20072;-76
2023/12/24 08:11:44;;;;;;;3.58;2.17;;;9.40;99.90;;;;;;5030020;28;20500;-76
2023/12/24 08:14:14;;;;;;;3.22;1.38;;;9.40;99.90;;;;;;5033468;28;20052;-77
2023/12/24 08:16:41;;;;;;;2.97;1.70;;;9.40;99.90;;;;;;5029450;28;20201;-76
2023/12/24 08:19:08;;;;;;;2.95;1.35;;;9.40;99.90;;;;;;5013994;28;20115;-77
2023/12/24 08:21:35;;;;;;;2.20;1.38;;;9.40;99.90;;;;;;5026670;28;20073;-77
2023/12/24 08:24:02;;;;;;;2.53;1.83;;;9.40;99.90;;;;;;5029436;28;20041;-76
2023/12/24 08:26:29;;;;;;;1.85;1.23;;;9.40;99.90;;;;;;5011753;28;20065;-77
2023/12/24 08:28:56;;;;;;;4.43;2.30;;;9.50;99.90;;;;;;5023362;28;20070;-77
2023/12/24 08:31:24;;;;;;;3.30;2.28;;;9.50;99.90;;;;;;4988068;28;20103;-76
2023/12/24 08:33:51;;;;;;;5.03;2.58;;;9.50;99.90;;;;;;5004549;28;20057;-77
2023/12/24 08:36:24;;;;;;;2.53;1.85;;;9.50;99.90;;;;;;5026060;28;20541;-76
2023/12/24 08:38:51;;;;;;;2.88;2.25;;;9.50;99.90;;;;;;5026223;28;20052;-76
2023/12/24 08:41:18;;;;;;;4.82;2.55;;;9.50;99.90;;;;;;5031124;28;20048;-77
2023/12/24 08:43:45;;;;;;;1.98;1.48;;;9.50;99.90;;;;;;5036540;28;20057;-78
2023/12/24 08:46:15;;;;;;;1.58;1.13;;;9.50;99.90;;;;;;5033242;28;20639;-76
2023/12/24 08:48:41;;;;;;;2.05;1.27;;;9.60;99.90;;;;;;5015304;28;20456;-78
2023/12/24 08:51:08;;;;;;;2.80;1.88;;;9.60;99.90;;;;;;5026618;28;20052;-79
2023/12/24 08:53:35;;;;;;;1.33;1.00;;;9.60;99.90;;;;;;5027683;28;20131;-78
2023/12/24 08:56:02;;;;;;;1.10;1.00;;;9.60;99.90;;;;;;5010170;28;20045;-78
2023/12/24 08:58:29;;;;;;;2.63;0.90;;;9.60;99.90;;;;;;5014695;28;20049;-78
2023/12/24 09:00:56;;;;;;;4.85;2.53;;;9.60;99.90;;;;;;5033464;28;20383;-78
2023/12/24 09:03:24;;;;;;;3.75;2.00;;;9.70;99.90;;;;;;5016624;28;20075;-77
2023/12/24 09:05:51;;;;;;;1.65;0.93;;;9.70;99.90;;;;;;5026029;28;20048;-78
2023/12/24 09:08:20;;;;;;;0.68;0.60;;;9.70;99.90;;;;;;5028324;28;20047;-79
2023/12/24 09:10:47;;;;;;;2.20;0.70;;;9.70;99.90;;;;;;5027457;28;20060;-77
2023/12/24 09:13:14;;;;;;;1.00;0.60;;;9.70;99.90;;;;;;5024179;28;20442;-77
2023/12/24 09:15:41;;;;;;;1.52;0.82;;;9.70;99.90;;;;;;5011143;28;20052;-78
2023/12/24 09:18:10;;;;;;;4.72;0.90;;;9.70;99.90;;;;;;5044430;28;20045;-77
2023/12/24 09:20:37;;;;;;;0.98;0.88;;;9.70;99.90;;;;;;5022052;28;20071;-80
2023/12/24 09:23:05;;;;;;;2.50;1.20;;;9.70;99.90;;;;;;5037292;28;20311;-79
2023/12/24 09:25:31;;;;;;;1.02;0.73;;;9.80;99.90;;;;;;5020666;28;20045;-80
2023/12/24 09:27:58;;;;;;;2.05;1.35;;;9.80;99.90;;;;;;5031182;28;21184;-80
2023/12/24 09:30:25;;;;;;;1.40;0.98;;;9.80;99.90;;;;;;5035540;28;20044;-80
2023/12/24 09:32:52;;;;;;;2.05;0.68;;;9.80;99.90;;;;;;5030320;28;20045;-79
2023/12/24 09:35:20;;;;;;;2.25;0.95;;;9.80;99.90;;;;;;5027629;28;20060;-80
2023/12/24 09:37:47;;;;;;;0.77;0.70;;;9.90;99.90;;;;;;5017717;28;20831;-81
2023/12/24 09:40:14;;;;;;;0.77;0.70;;;9.90;99.90;;;;;;5034228;28;20591;-77
2023/12/24 09:42:41;;;;;;;1.15;0.90;;;9.90;99.90;;;;;;5011192;28;20169;-79
2023/12/24 09:45:08;;;;;;;2.00;1.20;;;9.90;99.90;;;;;;5013032;28;20649;-79
2023/12/24 09:47:35;;;;;;;1.67;1.15;;;9.90;99.90;;;;;;5022453;28;20103;-80
2023/12/24 09:50:02;;;;;;;2.20;1.02;;;9.90;99.90;;;;;;5024560;28;20071;-81
2023/12/24 09:52:29;;;;;;;0.80;0.60;;;10.00;99.90;;;;;;5047468;28;20045;-82
2023/12/24 09:54:56;;;;;;;1.23;0.85;;;9.90;99.90;;;;;;5030032;28;20051;-81
2023/12/24 09:57:23;;;;;;;4.32;1.45;;;10.00;99.90;;;;;;5029310;28;20598;-82
2023/12/24 09:59:49;;;;;;;3.05;1.23;;;10.00;99.90;;;;;;5029496;28;20524;-82
2023/12/24 10:02:17;;;;;;;1.83;1.10;;;10.00;99.90;;;;;;5032784;28;20052;-82
2023/12/24 10:04:44;;;;;;;2.72;2.28;;;10.00;99.90;;;;;;5022271;28;20039;-85
2023/12/24 10:07:11;;;;;;;3.42;2.38;;;10.00;99.90;;;;;;5018997;28;20040;-83
2023/12/24 10:09:41;;;;;;;0.90;0.60;;;9.90;99.90;;;;;;5034284;28;20055;-81
2023/12/24 10:12:11;;;;;;;1.33;1.17;;;10.00;99.90;;;;;;5018906;28;20054;-82
2023/12/24 10:14:42;;;;;;;1.55;1.33;;;10.00;99.90;;;;;;5019884;28;20079;-81
2023/12/24 10:17:09;;;;;;;1.92;0.70;;;10.00;99.90;;;;;;5032852;28;20419;-84
2023/12/24 10:19:36;;;;;;;2.08;1.23;;;10.00;99.90;;;;;;5024014;28;20053;-83
2023/12/24 10:22:09;;;;;;;2.38;2.17;;;9.90;99.90;;;;;;5001771;28;20191;-81
2023/12/24 10:24:40;;;;;;;1.50;1.40;;;9.90;99.90;;;;;;5014645;28;20052;-81
2023/12/24 10:27:10;;;;;;;4.45;1.08;;;10.00;99.90;;;;;;5020724;28;20057;-81
2023/12/24 10:29:39;;;;;;;0.80;0.70;;;10.00;99.90;;;;;;5012228;28;20119;-82
2023/12/24 10:32:09;;;;;;;2.05;1.00;;;10.00;99.90;;;;;;5042558;28;21339;-82
2023/12/24 10:34:37;;;;;;;1.48;1.33;;;10.00;99.90;;;;;;5042627;28;20049;-82
2023/12/24 10:37:19;;;;;;;1.35;1.25;;;10.00;99.90;;;;;;5023667;28;20052;-82
2023/12/24 10:39:46;;;;;;;1.25;1.13;;;10.10;99.90;;;;;;5030380;28;20029;-83
2023/12/24 10:42:13;;;;;;;1.40;1.10;;;10.10;99.90;;;;;;5067531;28;20045;-83
2023/12/24 10:44:40;;;;;;;2.00;1.08;;;10.10;99.90;;;;;;5052059;28;20045;-83
2023/12/24 10:47:07;;;;;;;1.00;0.88;;;10.10;99.90;;;;;;5023707;28;20045;-82
2023/12/24 10:49:34;;;;;;;2.85;2.08;;;10.10;99.90;;;;;;5038568;28;20160;-81
2023/12/24 10:52:01;;;;;;;2.25;1.60;;;10.10;99.90;;;;;;5038943;28;20135;-82
2023/12/24 10:54:29;;;;;;;3.30;2.17;;;10.20;99.90;;;;;;5021513;28;20047;-83
2023/12/24 10:57:05;;;;;;;1.77;1.40;;;10.20;99.90;;;;;;5038257;28;20775;-82
2023/12/24 11:00:07;;;;;;;3.97;1.90;;;10.20;99.90;;;;;;5047249;28;20619;-83
2023/12/24 11:02:42;;;;;;;2.38;1.20;;;10.20;99.90;;;;;;5002457;28;20148;-81
2023/12/24 11:05:09;;;;;;;1.90;1.45;;;10.20;99.90;;;;;;5037835;28;20310;-83
2023/12/24 11:07:42;;;;;;;3.00;2.38;;;10.20;99.90;;;;;;5038141;28;20037;-82
2023/12/24 11:10:09;;;;;;;3.25;1.85;;;10.20;99.90;;;;;;5026703;28;20081;-81
2023/12/24 11:12:37;;;;;;;2.08;1.42;;;10.20;99.90;;;;;;5012666;28;20072;-81
2023/12/24 11:15:04;;;;;;;3.35;1.27;;;10.20;99.90;;;;;;4996617;28;20052;-81
2023/12/24 11:17:37;;;;;;;1.05;0.85;;;10.20;99.90;;;;;;5002910;28;20061;-83
2023/12/24 11:20:17;;;;;;;2.80;2.00;;;10.20;99.90;;;;;;4998359;28;20729;-82
2023/12/24 11:23:02;;;;;;;4.70;2.38;;;10.20;99.90;;;;;;5006636;28;20064;-82
2023/12/24 11:25:38;;;;;;;3.05;1.52;;;10.30;99.90;;;;;;5030325;28;20053;-83
2023/12/24 11:28:10;;;;;;;1.80;1.10;;;10.30;99.90;;;;;;5036423;28;20383;-82
2023/12/24 11:30:49;;;;;;;1.83;1.20;;;10.40;99.90;;;;;;5008190;28;20046;-85
2023/12/24 11:33:28;;;;;;;2.05;1.10;;;10.40;99.90;;;;;;5024893;28;20111;-83
2023/12/24 11:36:00;;;;;;;2.50;1.30;;;10.50;99.90;;;;;;5026033;28;20124;-83
2023/12/24 11:38:36;;;;;;;1.73;1.20;;;10.50;99.90;;;;;;5039716;28;20037;-82
2023/12/24 11:41:14;;;;;;;0.88;0.88;;;10.50;99.90;;;;;;5034433;28;20049;-83
2023/12/24 11:43:56;;;;;;;2.25;1.58;;;10.50;99.90;;;;;;5053770;28;21207;-83
2023/12/24 11:46:23;;;;;;;3.95;2.55;;;10.50;99.90;;;;;;5037704;28;20124;-82
2023/12/24 11:48:52;;;;;;;2.45;1.33;;;10.40;99.90;;;;;;5027082;28;20060;-82
2023/12/24 11:51:26;;;;;;;1.75;1.35;;;10.40;99.90;;;;;;5044598;28;20045;-84
2023/12/24 11:54:03;;;;;;;2.50;1.20;;;10.40;99.90;;;;;;5042111;28;20043;-83
2023/12/24 11:56:30;;;;;;;1.35;1.08;;;10.40;99.90;;;;;;5040782;28;20057;-82
2023/12/24 11:58:59;;;;;;;1.55;1.20;;;10.40;99.90;;;;;;5022568;28;20455;-83
2023/12/24 12:01:35;;;;;;;4.28;2.47;;;10.50;99.90;;;;;;5041520;28;20037;-82
2023/12/24 12:04:06;;;;;;;2.30;1.50;;;10.50;99.90;;;;;;5035584;28;20064;-83
2023/12/24 12:06:34;;;;;;;6.07;2.28;;;10.50;99.90;;;;;;5036474;28;20039;-82
2023/12/24 12:09:06;;;;;;;2.45;1.63;;;10.50;99.90;;;;;;5024056;28;20048;-82
2023/12/24 12:11:34;;;;;;;3.15;1.27;;;10.50;99.90;;;;;;5024161;28;20115;-82
2023/12/24 12:14:01;;;;;;;1.30;0.98;;;10.40;99.90;;;;;;5034859;28;20052;-82
2023/12/24 12:16:28;;;;;;;7.07;2.70;;;10.40;99.90;;;;;;5026528;28;20047;-83
2023/12/24 12:18:57;;;;;;;4.18;2.03;;;10.30;99.90;;;;;;5043344;28;20041;-84
2023/12/24 12:21:23;;;;;;;4.90;2.13;;;10.40;99.90;;;;;;5045762;28;20596;-83
2023/12/24 12:23:50;;;;;;;5.28;3.33;;;10.40;99.90;;;;;;5030526;28;20048;-82
2023/12/24 12:26:17;;;;;;;3.10;1.75;;;10.40;99.90;;;;;;5042019;28;20072;-81
2023/12/24 12:28:44;;;;;;;3.75;2.22;;;10.30;99.90;;;;;;5038717;28;20188;-81
2023/12/24 12:31:11;;;;;;;4.82;2.65;;;10.30;99.90;;;;;;4983272;28;20057;-81
2023/12/24 12:33:38;;;;;;;6.50;2.47;;;10.40;99.90;;;;;;5009237;28;20048;-82
2023/12/24 12:36:07;;;;;;;2.65;2.10;;;10.30;99.90;;;;;;5010749;28;20033;-82
2023/12/24 12:38:34;;;;;;;2.95;2.08;;;10.30;99.90;;;;;;5007271;28;20077;-81
2023/12/24 12:41:04;;;;;;;3.67;1.92;;;10.30;99.90;;;;;;5005516;28;20033;-81
2023/12/24 12:43:31;;;;;;;3.30;1.98;;;10.40;99.90;;;;;;5023775;28;20040;-80
2023/12/24 12:45:57;;;;;;;3.50;2.35;;;10.40;99.90;;;;;;5034581;28;20125;-80
2023/12/24 12:48:25;;;;;;;3.50;2.42;;;10.40;99.90;;;;;;5034895;28;20059;-81
2023/12/24 12:50:52;;;;;;;4.70;3.67;;;10.40;99.90;;;;;;5034094;28;20760;-81
2023/12/24 12:53:26;;;;;;;3.08;2.30;;;10.40;99.90;;;;;;5032111;28;20060;-80
2023/12/24 12:56:01;;;;;;;4.57;3.20;;;10.40;99.90;;;;;;5027108;28;20044;-82